sensor_id;sensor_type;location;lat;lon;timestamp;pressure;altitude;pressure_sealevel;temperature;humidity
24558;BME280;12726;49.148;8.582;2024-03-06T00:02:02;100511.84;;;5.74;100.00
24558;BME280;12726;49.148;8.582;2024-03-06T00:04:47;100522.53;;;5.74;100.00
24558;BME280;12726;49.148;8.582;2024-03-06T00:07:33;100527.38;;;5.70;100.00
24558;BME280;12726;49.148;8.582;2024-03-06T00:10:18;100529.41;;;5.68;100.00
24558;BME280;12726;49.148;8.582;2024-03-06T00:13:04;100523.41;;;5.66;100.00
24558;BME280;12726;49.148;8.582;2024-03-06T00:15:52;100530.41;;;5.67;100.00
24558;BME280;12726;49.148;8.582;2024-03-06T00:18:38;100530.59;;;5.66;100.00
24558;BME280;12726;49.148;8.582;2024-03-06T00:21:23;100534.28;;;5.65;100.00
24558;BME280;12726;49.148;8.582;2024-03-06T00:24:11;100541.63;;;5.63;100.00
24558;BME280;12726;49.148;8.582;2024-03-06T00:26:56;100536.47;;;5.61;100.00
24558;BME280;12726;49.148;8.582;2024-03-06T00:29:42;100540.97;;;5.61;100.00
24558;BME280;12726;49.148;8.582;2024-03-06T00:32:27;100546.50;;;5.59;100.00
24558;BME280;12726;49.148;8.582;2024-03-06T00:35:16;100543.00;;;5.59;100.00
24558;BME280;12726;49.148;8.582;2024-03-06T00:38:03;100541.50;;;5.56;100.00
24558;BME280;12726;49.148;8.582;2024-03-06T00:40:50;100541.31;;;5.58;100.00
24558;BME280;12726;49.148;8.582;2024-03-06T00:43:36;100541.16;;;5.59;100.00
24558;BME280;12726;49.148;8.582;2024-03-06T00:46:21;100540.50;;;5.57;100.00
24558;BME280;12726;49.148;8.582;2024-03-06T00:49:06;100545.16;;;5.55;100.00
24558;BME280;12726;49.148;8.582;2024-03-06T00:51:53;100538.53;;;5.51;100.00
24558;BME280;12726;49.148;8.582;2024-03-06T00:54:38;100539.72;;;5.48;100.00
24558;BME280;12726;49.148;8.582;2024-03-06T00:57:24;100532.06;;;5.45;100.00
24558;BME280;12726;49.148;8.582;2024-03-06T01:00:10;100522.44;;;5.36;100.00
24558;BME280;12726;49.148;8.582;2024-03-06T01:02:56;100532.94;;;5.38;100.00
24558;BME280;12726;49.148;8.582;2024-03-06T01:05:42;100531.44;;;5.35;100.00
24558;BME280;12726;49.148;8.582;2024-03-06T01:08:28;100527.78;;;5.36;100.00
24558;BME280;12726;49.148;8.582;2024-03-06T01:11:15;100522.78;;;5.33;100.00
24558;BME280;12726;49.148;8.582;2024-03-06T01:14:01;100520.63;;;5.29;100.00
24558;BME280;12726;49.148;8.582;2024-03-06T01:16:47;100530.84;;;5.25;100.00
24558;BME280;12726;49.148;8.582;2024-03-06T01:19:33;100529.34;;;5.23;100.00
24558;BME280;12726;49.148;8.582;2024-03-06T01:22:18;100524.69;;;5.25;100.00
24558;BME280;12726;49.148;8.582;2024-03-06T01:25:06;100523.19;;;5.22;100.00
24558;BME280;12726;49.148;8.582;2024-03-06T01:27:51;100517.38;;;5.19;100.00
24558;BME280;12726;49.148;8.582;2024-03-06T01:30:36;100533.72;;;5.16;100.00
24558;BME280;12726;49.148;8.582;2024-03-06T01:33:21;100528.22;;;5.17;100.00
24558;BME280;12726;49.148;8.582;2024-03-06T01:36:07;100538.22;;;5.15;100.00
24558;BME280;12726;49.148;8.582;2024-03-06T01:38:52;100536.72;;;5.12;100.00
24558;BME280;12726;49.148;8.582;2024-03-06T01:41:44;100542.25;;;5.11;100.00
24558;BME280;12726;49.148;8.582;2024-03-06T01:44:29;100547.94;;;5.08;100.00
24558;BME280;12726;49.148;8.582;2024-03-06T01:47:15;100550.59;;;5.08;100.00
24558;BME280;12726;49.148;8.582;2024-03-06T01:50:01;100551.78;;;5.05;100.00
24558;BME280;12726;49.148;8.582;2024-03-06T01:52:47;100545.59;;;5.05;100.00
24558;BME280;12726;49.148;8.582;2024-03-06T01:55:33;100544.13;;;5.02;100.00
24558;BME280;12726;49.148;8.582;2024-03-06T01:58:20;100543.28;;;5.02;100.00
24558;BME280;12726;49.148;8.582;2024-03-06T02:01:06;100546.97;;;5.01;100.00
24558;BME280;12726;49.148;8.582;2024-03-06T02:03:52;100550.47;;;5.01;100.00
24558;BME280;12726;49.148;8.582;2024-03-06T02:06:38;100547.13;;;4.99;100.00
24558;BME280;12726;49.148;8.582;2024-03-06T02:09:23;100547.97;;;5.00;100.00
24558;BME280;12726;49.148;8.582;2024-03-06T02:12:09;100543.63;;;4.99;100.00
24558;BME280;12726;49.148;8.582;2024-03-06T02:14:55;100543.16;;;4.95;100.00
24558;BME280;12726;49.148;8.582;2024-03-06T02:17:41;100541.81;;;4.91;100.00
24558;BME280;12726;49.148;8.582;2024-03-06T02:20:28;100543.84;;;4.89;100.00
24558;BME280;12726;49.148;8.582;2024-03-06T02:23:14;100551.19;;;4.87;100.00
24558;BME280;12726;49.148;8.582;2024-03-06T02:26:01;100543.50;;;4.84;100.00
24558;BME280;12726;49.148;8.582;2024-03-06T02:28:47;100549.84;;;4.83;100.00
24558;BME280;12726;49.148;8.582;2024-03-06T02:31:33;100549.84;;;4.83;100.00
24558;BME280;12726;49.148;8.582;2024-03-06T02:34:19;100551.50;;;4.84;100.00
24558;BME280;12726;49.148;8.582;2024-03-06T02:37:05;100551.19;;;4.87;100.00
24558;BME280;12726;49.148;8.582;2024-03-06T02:39:50;100549.34;;;4.88;100.00
24558;BME280;12726;49.148;8.582;2024-03-06T02:42:36;100546.00;;;4.86;100.00
24558;BME280;12726;49.148;8.582;2024-03-06T02:45:23;100552.50;;;4.83;100.00
24558;BME280;12726;49.148;8.582;2024-03-06T02:48:08;100554.19;;;4.84;100.00
24558;BME280;12726;49.148;8.582;2024-03-06T02:50:54;100541.69;;;4.85;100.00
24558;BME280;12726;49.148;8.582;2024-03-06T02:53:41;100538.38;;;4.83;100.00
24558;BME280;12726;49.148;8.582;2024-03-06T02:56:26;100540.22;;;4.82;100.00
24558;BME280;12726;49.148;8.582;2024-03-06T02:59:12;100547.53;;;4.80;100.00
24558;BME280;12726;49.148;8.582;2024-03-06T03:01:57;100542.38;;;4.79;100.00
24558;BME280;12726;49.148;8.582;2024-03-06T03:04:43;100549.53;;;4.78;100.00
24558;BME280;12726;49.148;8.582;2024-03-06T03:07:29;100548.69;;;4.78;100.00
24558;BME280;12726;49.148;8.582;2024-03-06T03:10:16;100548.06;;;4.76;100.00
24558;BME280;12726;49.148;8.582;2024-03-06T03:13:01;100547.88;;;4.77;100.00
24558;BME280;12726;49.148;8.582;2024-03-06T03:15:49;100545.03;;;4.79;100.00
24558;BME280;12726;49.148;8.582;2024-03-06T03:18:35;100557.22;;;4.81;100.00
24558;BME280;12726;49.148;8.582;2024-03-06T03:21:20;100561.84;;;4.87;100.00
24558;BME280;12726;49.148;8.582;2024-03-06T03:24:05;100561.84;;;4.87;100.00
24558;BME280;12726;49.148;8.582;2024-03-06T03:26:52;100576.84;;;4.88;100.00
24558;BME280;12726;49.148;8.582;2024-03-06T03:29:37;100567.19;;;4.87;100.00
24558;BME280;12726;49.148;8.582;2024-03-06T03:32:23;100575.19;;;4.87;100.00
24558;BME280;12726;49.148;8.582;2024-03-06T03:35:09;100571.16;;;4.91;100.00
24558;BME280;12726;49.148;8.582;2024-03-06T03:37:54;100577.50;;;4.90;100.00
24558;BME280;12726;49.148;8.582;2024-03-06T03:40:40;100584.50;;;4.91;100.00
24558;BME280;12726;49.148;8.582;2024-03-06T03:43:27;100575.66;;;4.91;100.00
24558;BME280;12726;49.148;8.582;2024-03-06T03:46:12;100572.38;;;4.89;100.00
24558;BME280;12726;49.148;8.582;2024-03-06T03:48:58;100569.50;;;4.90;100.00
24558;BME280;12726;49.148;8.582;2024-03-06T03:51:43;100571.38;;;4.90;100.00
24558;BME280;12726;49.148;8.582;2024-03-06T03:54:29;100579.53;;;4.88;100.00
24558;BME280;12726;49.148;8.582;2024-03-06T03:57:14;100578.03;;;4.86;100.00
24558;BME280;12726;49.148;8.582;2024-03-06T04:00:01;100581.38;;;4.88;100.00
24558;BME280;12726;49.148;8.582;2024-03-06T04:02:47;100584.03;;;4.88;100.00
24558;BME280;12726;49.148;8.582;2024-03-06T04:05:32;100589.19;;;4.89;100.00
24558;BME280;12726;49.148;8.582;2024-03-06T04:08:18;100586.53;;;4.89;100.00
24558;BME280;12726;49.148;8.582;2024-03-06T04:11:03;100595.53;;;4.88;100.00
24558;BME280;12726;49.148;8.582;2024-03-06T04:13:49;100588.38;;;4.89;100.00
24558;BME280;12726;49.148;8.582;2024-03-06T04:16:35;100585.88;;;4.87;100.00
24558;BME280;12726;49.148;8.582;2024-03-06T04:19:20;100582.34;;;4.87;100.00
24558;BME280;12726;49.148;8.582;2024-03-06T04:22:06;100580.53;;;4.87;100.00
24558;BME280;12726;49.148;8.582;2024-03-06T04:24:51;100595.69;;;4.87;100.00
24558;BME280;12726;49.148;8.582;2024-03-06T04:27:37;100594.03;;;4.86;100.00
24558;BME280;12726;49.148;8.582;2024-03-06T04:30:22;100598.69;;;4.84;100.00
24558;BME280;12726;49.148;8.582;2024-03-06T04:33:10;100603.19;;;4.83;100.00
24558;BME280;12726;49.148;8.582;2024-03-06T04:35:58;100608.53;;;4.83;100.00
24558;BME280;12726;49.148;8.582;2024-03-06T04:38:43;100612.03;;;4.84;100.00
24558;BME280;12726;49.148;8.582;2024-03-06T04:41:28;100610.19;;;4.84;100.00
24558;BME280;12726;49.148;8.582;2024-03-06T04:44:14;100626.19;;;4.84;100.00
24558;BME280;12726;49.148;8.582;2024-03-06T04:46:59;100614.53;;;4.85;100.00
24558;BME280;12726;49.148;8.582;2024-03-06T04:49:46;100623.38;;;4.86;100.00
24558;BME280;12726;49.148;8.582;2024-03-06T04:52:31;100622.53;;;4.85;100.00
24558;BME280;12726;49.148;8.582;2024-03-06T04:55:17;100626.19;;;4.84;100.00
24558;BME280;12726;49.148;8.582;2024-03-06T04:58:06;100625.38;;;4.84;100.00
24558;BME280;12726;49.148;8.582;2024-03-06T05:00:51;100629.88;;;4.83;100.00
24558;BME280;12726;49.148;8.582;2024-03-06T05:03:37;100628.41;;;4.81;100.00
24558;BME280;12726;49.148;8.582;2024-03-06T05:06:23;100629.38;;;4.80;100.00
24558;BME280;12726;49.148;8.582;2024-03-06T05:09:09;100640.72;;;4.82;100.00
24558;BME280;12726;49.148;8.582;2024-03-06T05:11:55;100637.22;;;4.81;100.00
24558;BME280;12726;49.148;8.582;2024-03-06T05:14:41;100643.41;;;4.82;100.00
24558;BME280;12726;49.148;8.582;2024-03-06T05:17:26;100651.22;;;4.83;100.00
24558;BME280;12726;49.148;8.582;2024-03-06T05:20:11;100650.56;;;4.81;100.00
24558;BME280;12726;49.148;8.582;2024-03-06T05:22:58;100657.72;;;4.81;100.00
24558;BME280;12726;49.148;8.582;2024-03-06T05:25:43;100652.41;;;4.81;100.00
24558;BME280;12726;49.148;8.582;2024-03-06T05:28:28;100658.41;;;4.83;100.00
24558;BME280;12726;49.148;8.582;2024-03-06T05:31:16;100665.22;;;4.85;100.00
24558;BME280;12726;49.148;8.582;2024-03-06T05:34:02;100664.06;;;4.88;100.00
24558;BME280;12726;49.148;8.582;2024-03-06T05:36:49;100676.22;;;4.90;100.00
24558;BME280;12726;49.148;8.582;2024-03-06T05:39:36;100678.53;;;4.93;100.00
24558;BME280;12726;49.148;8.582;2024-03-06T05:42:22;100664.91;;;4.88;100.00
24558;BME280;12726;49.148;8.582;2024-03-06T05:45:07;100688.06;;;4.96;100.00
24558;BME280;12726;49.148;8.582;2024-03-06T05:47:54;100692.19;;;4.98;100.00
24558;BME280;12726;49.148;8.582;2024-03-06T05:50:39;100692.56;;;5.03;100.00
24558;BME280;12726;49.148;8.582;2024-03-06T05:53:27;100698.38;;;5.07;100.00
24558;BME280;12726;49.148;8.582;2024-03-06T05:56:14;100697.38;;;5.08;100.00
24558;BME280;12726;49.148;8.582;2024-03-06T05:58:59;100701.19;;;5.13;100.00
24558;BME280;12726;49.148;8.582;2024-03-06T06:01:48;100705.84;;;5.11;100.00
24558;BME280;12726;49.148;8.582;2024-03-06T06:04:33;100710.56;;;5.09;100.00
24558;BME280;12726;49.148;8.582;2024-03-06T06:07:18;100716.72;;;5.10;100.00
24558;BME280;12726;49.148;8.582;2024-03-06T06:10:04;100718.38;;;5.11;100.00
24558;BME280;12726;49.148;8.582;2024-03-06T06:12:53;100721.88;;;5.11;100.00
24558;BME280;12726;49.148;8.582;2024-03-06T06:15:39;100733.56;;;5.10;100.00
24558;BME280;12726;49.148;8.582;2024-03-06T06:18:24;100732.72;;;5.10;100.00
24558;BME280;12726;49.148;8.582;2024-03-06T06:21:09;100733.38;;;5.12;100.00
24558;BME280;12726;49.148;8.582;2024-03-06T06:23:55;100734.22;;;5.12;100.00
24558;BME280;12726;49.148;8.582;2024-03-06T06:26:40;100737.38;;;5.16;100.00
24558;BME280;12726;49.148;8.582;2024-03-06T06:29:27;100741.72;;;5.17;100.00
24558;BME280;12726;49.148;8.582;2024-03-06T06:32:13;100740.06;;;5.16;100.00
24558;BME280;12726;49.148;8.582;2024-03-06T06:34:58;100746.91;;;5.19;100.00
24558;BME280;12726;49.148;8.582;2024-03-06T06:37:44;100751.41;;;5.18;100.00
24558;BME280;12726;49.148;8.582;2024-03-06T06:40:30;100758.56;;;5.18;100.00
24558;BME280;12726;49.148;8.582;2024-03-06T06:43:15;100759.06;;;5.21;100.00
24558;BME280;12726;49.148;8.582;2024-03-06T06:46:02;100756.38;;;5.21;100.00
24558;BME280;12726;49.148;8.582;2024-03-06T06:48:49;100759.72;;;5.23;100.00
24558;BME280;12726;49.148;8.582;2024-03-06T06:51:34;100760.22;;;5.27;100.00
24558;BME280;12726;49.148;8.582;2024-03-06T06:54:20;100764.56;;;5.28;100.00
24558;BME280;12726;49.148;8.582;2024-03-06T06:57:05;100759.88;;;5.30;100.00
24558;BME280;12726;49.148;8.582;2024-03-06T06:59:51;100776.72;;;5.30;100.00
24558;BME280;12726;49.148;8.582;2024-03-06T07:02:37;100773.91;;;5.32;100.00
24558;BME280;12726;49.148;8.582;2024-03-06T07:05:24;100785.22;;;5.34;100.00
24558;BME280;12726;49.148;8.582;2024-03-06T07:08:10;100784.22;;;5.35;100.00
24558;BME280;12726;49.148;8.582;2024-03-06T07:10:55;100781.06;;;5.39;100.00
24558;BME280;12726;49.148;8.582;2024-03-06T07:13:41;100792.75;;;5.46;100.00
24558;BME280;12726;49.148;8.582;2024-03-06T07:16:26;100785.50;;;5.55;100.00
24558;BME280;12726;49.148;8.582;2024-03-06T07:19:13;100791.69;;;5.64;100.00
24558;BME280;12726;49.148;8.582;2024-03-06T07:21:58;100783.13;;;5.76;100.00
24558;BME280;12726;49.148;8.582;2024-03-06T07:24:44;100786.59;;;5.93;100.00
24558;BME280;12726;49.148;8.582;2024-03-06T07:27:29;100795.41;;;6.10;100.00
24558;BME280;12726;49.148;8.582;2024-03-06T07:30:15;100798.72;;;6.12;100.00
24558;BME280;12726;49.148;8.582;2024-03-06T07:33:00;100796.53;;;6.15;100.00
24558;BME280;12726;49.148;8.582;2024-03-06T07:35:47;100782.69;;;6.12;100.00
24558;BME280;12726;49.148;8.582;2024-03-06T07:38:32;100791.06;;;6.09;100.00
24558;BME280;12726;49.148;8.582;2024-03-06T07:41:18;100802.25;;;6.04;100.00
24558;BME280;12726;49.148;8.582;2024-03-06T07:44:03;100805.13;;;6.03;100.00
24558;BME280;12726;49.148;8.582;2024-03-06T07:46:49;100806.97;;;5.94;100.00
24558;BME280;12726;49.148;8.582;2024-03-06T07:49:37;100811.34;;;5.95;100.00
24558;BME280;12726;49.148;8.582;2024-03-06T07:52:24;100806.81;;;5.96;100.00
24558;BME280;12726;49.148;8.582;2024-03-06T07:55:09;100807.25;;;6.07;100.00
24558;BME280;12726;49.148;8.582;2024-03-06T07:57:54;100810.91;;;6.14;100.00
24558;BME280;12726;49.148;8.582;2024-03-06T08:00:39;100807.75;;;6.11;100.00
24558;BME280;12726;49.148;8.582;2024-03-06T08:03:24;100812.44;;;6.09;100.00
24558;BME280;12726;49.148;8.582;2024-03-06T08:06:10;100815.25;;;6.15;100.00
24558;BME280;12726;49.148;8.582;2024-03-06T08:08:58;100817.72;;;6.25;100.00
24558;BME280;12726;49.148;8.582;2024-03-06T08:11:45;100821.31;;;6.40;100.00
24558;BME280;12726;49.148;8.582;2024-03-06T08:14:31;100818.59;;;6.48;100.00
24558;BME280;12726;49.148;8.582;2024-03-06T08:17:16;100816.53;;;6.58;100.00
24558;BME280;12726;49.148;8.582;2024-03-06T08:20:02;100820.00;;;6.67;100.00
24558;BME280;12726;49.148;8.582;2024-03-06T08:22:51;100827.91;;;6.83;100.00
24558;BME280;12726;49.148;8.582;2024-03-06T08:25:40;100828.69;;;6.92;100.00
24558;BME280;12726;49.148;8.582;2024-03-06T08:28:26;100833.09;;;7.07;100.00
24558;BME280;12726;49.148;8.582;2024-03-06T08:31:11;100835.88;;;7.14;100.00
24558;BME280;12726;49.148;8.582;2024-03-06T08:33:56;100832.22;;;7.30;100.00
24558;BME280;12726;49.148;8.582;2024-03-06T08:36:42;100834.47;;;7.41;100.00
24558;BME280;12726;49.148;8.582;2024-03-06T08:39:27;100835.53;;;7.32;100.00
24558;BME280;12726;49.148;8.582;2024-03-06T08:42:14;100830.19;;;7.32;100.00
24558;BME280;12726;49.148;8.582;2024-03-06T08:45:02;100841.28;;;7.29;100.00
24558;BME280;12726;49.148;8.582;2024-03-06T08:47:48;100833.94;;;7.45;100.00
24558;BME280;12726;49.148;8.582;2024-03-06T08:50:34;100839.56;;;7.51;100.00
24558;BME280;12726;49.148;8.582;2024-03-06T08:53:19;100832.38;;;7.51;100.00
24558;BME280;12726;49.148;8.582;2024-03-06T08:56:05;100844.50;;;7.39;100.00
24558;BME280;12726;49.148;8.582;2024-03-06T08:58:52;100846.25;;;7.32;100.00
24558;BME280;12726;49.148;8.582;2024-03-06T09:01:37;100844.50;;;7.39;100.00
24558;BME280;12726;49.148;8.582;2024-03-06T09:04:22;100855.00;;;7.48;100.00
24558;BME280;12726;49.148;8.582;2024-03-06T09:07:08;100855.53;;;7.44;100.00
24558;BME280;12726;49.148;8.582;2024-03-06T09:09:54;100867.38;;;7.50;100.00
24558;BME280;12726;49.148;8.582;2024-03-06T09:12:40;100874.78;;;7.62;100.00
24558;BME280;12726;49.148;8.582;2024-03-06T09:15:27;100868.44;;;7.78;100.00
24558;BME280;12726;49.148;8.582;2024-03-06T09:18:12;100876.22;;;7.73;100.00
24558;BME280;12726;49.148;8.582;2024-03-06T09:20:59;100868.63;;;7.76;100.00
24558;BME280;12726;49.148;8.582;2024-03-06T09:23:46;100876.56;;;7.70;100.00
24558;BME280;12726;49.148;8.582;2024-03-06T09:26:35;100874.38;;;7.88;100.00
24558;BME280;12726;49.148;8.582;2024-03-06T09:29:21;100868.47;;;8.07;100.00
24558;BME280;12726;49.148;8.582;2024-03-06T09:32:08;100872.25;;;8.13;100.00
24558;BME280;12726;49.148;8.582;2024-03-06T09:34:53;100868.81;;;8.19;100.00
24558;BME280;12726;49.148;8.582;2024-03-06T09:37:38;100878.63;;;8.12;100.00
24558;BME280;12726;49.148;8.582;2024-03-06T09:40:24;100871.06;;;8.15;100.00
24558;BME280;12726;49.148;8.582;2024-03-06T09:43:09;100882.53;;;8.09;100.00
24558;BME280;12726;49.148;8.582;2024-03-06T09:45:56;100886.31;;;8.00;100.00
24558;BME280;12726;49.148;8.582;2024-03-06T09:48:46;100882.44;;;8.03;100.00
24558;BME280;12726;49.148;8.582;2024-03-06T09:51:31;100877.78;;;7.97;100.00
24558;BME280;12726;49.148;8.582;2024-03-06T09:54:17;100880.22;;;8.21;100.00
24558;BME280;12726;49.148;8.582;2024-03-06T09:57:03;100879.31;;;8.43;100.00
24558;BME280;12726;49.148;8.582;2024-03-06T09:59:48;100876.06;;;8.48;100.00
24558;BME280;12726;49.148;8.582;2024-03-06T10:02:37;100890.63;;;8.60;100.00
24558;BME280;12726;49.148;8.582;2024-03-06T10:05:24;100885.63;;;8.72;100.00
24558;BME280;12726;49.148;8.582;2024-03-06T10:08:11;100890.69;;;8.81;100.00
24558;BME280;12726;49.148;8.582;2024-03-06T10:11:00;100888.16;;;8.73;100.00
24558;BME280;12726;49.148;8.582;2024-03-06T10:13:46;100880.84;;;8.88;100.00
24558;BME280;12726;49.148;8.582;2024-03-06T10:16:31;100883.44;;;8.96;100.00
24558;BME280;12726;49.148;8.582;2024-03-06T10:19:17;100885.78;;;8.85;100.00
24558;BME280;12726;49.148;8.582;2024-03-06T10:22:06;100880.84;;;8.88;100.00
24558;BME280;12726;49.148;8.582;2024-03-06T10:24:55;100889.22;;;8.79;100.00
24558;BME280;12726;49.148;8.582;2024-03-06T10:27:40;100890.19;;;8.56;100.00
24558;BME280;12726;49.148;8.582;2024-03-06T10:30:26;100898.09;;;8.43;100.00
24558;BME280;12726;49.148;8.582;2024-03-06T10:33:12;100887.44;;;8.35;100.00
24558;BME280;12726;49.148;8.582;2024-03-06T10:35:58;100888.09;;;8.37;100.00
24558;BME280;12726;49.148;8.582;2024-03-06T10:38:47;100889.75;;;8.23;100.00
24558;BME280;12726;49.148;8.582;2024-03-06T10:41:36;100892.69;;;8.29;100.00
24558;BME280;12726;49.148;8.582;2024-03-06T10:44:25;100887.16;;;8.45;100.00
24558;BME280;12726;49.148;8.582;2024-03-06T10:47:12;100889.19;;;8.28;100.00
24558;BME280;12726;49.148;8.582;2024-03-06T10:49:59;100884.56;;;8.51;100.00
24558;BME280;12726;49.148;8.582;2024-03-06T10:52:46;100880.91;;;8.74;100.00
24558;BME280;12726;49.148;8.582;2024-03-06T10:55:34;100880.66;;;8.90;100.00
24558;BME280;12726;49.148;8.582;2024-03-06T10:58:20;100882.53;;;8.89;100.00
24558;BME280;12726;49.148;8.582;2024-03-06T11:01:06;100890.25;;;8.78;100.00
24558;BME280;12726;49.148;8.582;2024-03-06T11:03:59;100895.63;;;8.78;100.00
24558;BME280;12726;49.148;8.582;2024-03-06T11:06:45;100893.81;;;8.99;100.00
24558;BME280;12726;49.148;8.582;2024-03-06T11:09:47;100892.34;;;9.18;100.00
24558;BME280;12726;49.148;8.582;2024-03-06T11:12:35;100895.06;;;9.03;100.00
24558;BME280;12726;49.148;8.582;2024-03-06T11:15:22;100902.97;;;8.90;100.00
24558;BME280;12726;49.148;8.582;2024-03-06T11:21:30;100892.59;;;9.23;100.00
24558;BME280;12726;49.148;8.582;2024-03-06T11:24:17;100892.09;;;8.77;100.00
24558;BME280;12726;49.148;8.582;2024-03-06T11:27:04;100897.38;;;8.71;100.00
24558;BME280;12726;49.148;8.582;2024-03-06T11:30:06;100895.81;;;8.61;100.00
24558;BME280;12726;49.148;8.582;2024-03-06T11:32:58;100898.44;;;8.91;100.00
24558;BME280;12726;49.148;8.582;2024-03-06T11:36:15;100890.84;;;8.94;100.00
24558;BME280;12726;49.148;8.582;2024-03-06T11:39:03;100892.16;;;8.84;100.00
24558;BME280;12726;49.148;8.582;2024-03-06T11:41:50;100891.75;;;9.01;100.00
24558;BME280;12726;49.148;8.582;2024-03-06T11:44:36;100897.13;;;9.01;100.00
24558;BME280;12726;49.148;8.582;2024-03-06T11:47:23;100896.25;;;9.16;100.00
24558;BME280;12726;49.148;8.582;2024-03-06T11:50:08;100896.94;;;9.24;100.00
24558;BME280;12726;49.148;8.582;2024-03-06T11:52:56;100889.69;;;9.46;100.00
24558;BME280;12726;49.148;8.582;2024-03-06T11:55:41;100892.38;;;9.46;100.00
24558;BME280;12726;49.148;8.582;2024-03-06T11:58:27;100890.13;;;9.71;100.00
24558;BME280;12726;49.148;8.582;2024-03-06T12:01:13;100887.38;;;9.64;100.00
24558;BME280;12726;49.148;8.582;2024-03-06T12:04:00;100890.03;;;9.58;100.00
24558;BME280;12726;49.148;8.582;2024-03-06T12:06:45;100896.19;;;9.30;100.00
24558;BME280;12726;49.148;8.582;2024-03-06T12:09:31;100894.63;;;9.64;100.00
24558;BME280;12726;49.148;8.582;2024-03-06T12:12:17;100894.63;;;9.64;100.00
24558;BME280;12726;49.148;8.582;2024-03-06T12:15:03;100885.88;;;9.83;100.00
24558;BME280;12726;49.148;8.582;2024-03-06T12:17:50;100892.41;;;9.74;100.00
24558;BME280;12726;49.148;8.582;2024-03-06T12:20:40;100891.34;;;9.68;100.00
24558;BME280;12726;49.148;8.582;2024-03-06T12:23:29;100895.72;;;9.48;100.00
24558;BME280;12726;49.148;8.582;2024-03-06T12:26:14;100886.94;;;9.39;100.00
24558;BME280;12726;49.148;8.582;2024-03-06T12:29:06;100888.13;;;9.30;100.00
24558;BME280;12726;49.148;8.582;2024-03-06T12:31:52;100890.41;;;9.33;100.00
24558;BME280;12726;49.148;8.582;2024-03-06T12:34:37;100891.72;;;9.37;100.00
24558;BME280;12726;49.148;8.582;2024-03-06T12:37:29;100886.25;;;9.31;100.00
24558;BME280;12726;49.148;8.582;2024-03-06T12:40:16;100888.69;;;9.47;100.00
24558;BME280;12726;49.148;8.582;2024-03-06T12:43:01;100881.06;;;9.51;100.00
24558;BME280;12726;49.148;8.582;2024-03-06T12:45:49;100889.09;;;9.44;100.00
24558;BME280;12726;49.148;8.582;2024-03-06T12:48:35;100890.22;;;9.14;100.00
24558;BME280;12726;49.148;8.582;2024-03-06T12:51:20;100888.44;;;9.21;100.00
24558;BME280;12726;49.148;8.582;2024-03-06T12:54:07;100879.66;;;9.12;100.00
24558;BME280;12726;49.148;8.582;2024-03-06T12:56:53;100884.22;;;9.12;100.00
24558;BME280;12726;49.148;8.582;2024-03-06T12:59:39;100882.47;;;9.04;100.00
24558;BME280;12726;49.148;8.582;2024-03-06T13:02:24;100884.31;;;8.82;100.00
24558;BME280;12726;49.148;8.582;2024-03-06T13:05:10;100881.72;;;8.74;100.00
24558;BME280;12726;49.148;8.582;2024-03-06T13:07:55;100880.00;;;8.67;100.00
24558;BME280;12726;49.148;8.582;2024-03-06T13:10:42;100882.31;;;8.55;100.00
24558;BME280;12726;49.148;8.582;2024-03-06T13:13:27;100882.31;;;8.55;100.00
24558;BME280;12726;49.148;8.582;2024-03-06T13:16:13;100884.34;;;8.53;100.00
24558;BME280;12726;49.148;8.582;2024-03-06T13:18:59;100871.50;;;8.48;100.00
24558;BME280;12726;49.148;8.582;2024-03-06T13:21:46;100882.72;;;8.52;100.00
24558;BME280;12726;49.148;8.582;2024-03-06T13:24:32;100876.97;;;8.55;100.00
24558;BME280;12726;49.148;8.582;2024-03-06T13:27:19;100875.75;;;8.57;100.00
24558;BME280;12726;49.148;8.582;2024-03-06T13:30:05;100867.06;;;8.55;100.00
24558;BME280;12726;49.148;8.582;2024-03-06T13:32:51;100872.06;;;8.58;100.00
24558;BME280;12726;49.148;8.582;2024-03-06T13:35:38;100879.81;;;8.53;100.00
24558;BME280;12726;49.148;8.582;2024-03-06T13:38:23;100877.28;;;8.45;100.00
24558;BME280;12726;49.148;8.582;2024-03-06T13:41:09;100882.63;;;8.45;100.00
24558;BME280;12726;49.148;8.582;2024-03-06T13:43:56;100876.06;;;8.48;100.00
24558;BME280;12726;49.148;8.582;2024-03-06T13:46:41;100877.72;;;8.49;100.00
24558;BME280;12726;49.148;8.582;2024-03-06T13:49:37;100880.97;;;8.44;100.00
24558;BME280;12726;49.148;8.582;2024-03-06T13:52:23;100878.47;;;8.43;100.00
24558;BME280;12726;49.148;8.582;2024-03-06T13:55:09;100884.66;;;8.43;100.00
24558;BME280;12726;49.148;8.582;2024-03-06T13:57:54;100880.13;;;8.44;100.00
24558;BME280;12726;49.148;8.582;2024-03-06T14:00:41;100882.34;;;8.40;100.00
24558;BME280;12726;49.148;8.582;2024-03-06T14:03:27;100879.84;;;8.39;100.00
24558;BME280;12726;49.148;8.582;2024-03-06T14:06:13;100887.72;;;8.40;100.00
24558;BME280;12726;49.148;8.582;2024-03-06T14:08:58;100881.34;;;8.41;100.00
24558;BME280;12726;49.148;8.582;2024-03-06T14:11:43;100889.19;;;8.43;100.00
24558;BME280;12726;49.148;8.582;2024-03-06T14:14:29;100884.00;;;8.41;100.00
24558;BME280;12726;49.148;8.582;2024-03-06T14:17:15;100886.13;;;8.46;100.00
24558;BME280;12726;49.148;8.582;2024-03-06T14:20:01;100878.72;;;8.48;100.00
24558;BME280;12726;49.148;8.582;2024-03-06T14:22:47;100888.00;;;8.45;100.00
24558;BME280;12726;49.148;8.582;2024-03-06T14:25:32;100882.81;;;8.44;100.00
24558;BME280;12726;49.148;8.582;2024-03-06T14:28:19;100893.16;;;8.47;100.00
24558;BME280;12726;49.148;8.582;2024-03-06T14:31:05;100883.44;;;8.46;100.00
24558;BME280;12726;49.148;8.582;2024-03-06T14:33:52;100883.44;;;8.46;100.00